Airfield :
LOGIN :

Register | Disclaimer

   EN    FR    IT 

 










Legend :    VFR   Marginal VFR   IFR   Intensive IFR   Very Intensive IFR
Visi :
Ceiling :
>= 8 km
>= 3000ft
5 to 8 km
1000 to 3000 ft
1500m to 5 km
500 to 1000 ft
800 to 1500m
200 to 500 ft
< 800m
< 200 ft
Symbols :   Thunderstorms  Fog  Heavy snow  Heavy precipitations  Wind > 20 kt
SIGMETs :     Misc.  Thunderstorms  Icing  Turbulence  Mountain Waves  Volcanic Ashes







- Airport Elevation : 598 ft
- IATA code : BQH
- Download approach charts


EGKB - Biggin Hill

CURRENT METAR :
  • 240820Z 23009KT 190V250 9999 BKN014 17/15 Q1015

EXPIRED METARs :
  • 240750Z 23008KT 190V260 9999 BKN011 17/15 Q1015
  • 240720Z 23010KT 200V260 9999 BKN010 17/15 Q1015
  • 240650Z 22010KT 190V250 9999 SCT010 17/15 Q1015

TAF TAF EGKB
Valid from the 24 at 09:00 until the 24 at 18:00 UTC


240757Z 2409/2418 23012KT 9999 SCT010 BKN018
TEMPO 2409/2414 BKN009
PROB30
TEMPO 2409/2418 23015G25KT 8000 -SHRA
No reported NOTAMs for that airfield.



MET'MAP, your aeronautical weather chart ! - Copyright ORBIFLY December 2007 - Disclaimer

ORBIFLY MET'MAP TEAM :

Programming & Development : Alexandra Zaïnal
Concept & Development : Baudouin d'Aumeries
Co-Development & Prog : Marc-Olivier Méhu
Technical & hardware support : Manuel Goepfert

Contact : metmap@orbifly.com




SOURCES & CREDITS :

   NOAA